sensor_id;sensor_type;location;lat;lon;timestamp;P1;durP1;ratioP1;P2;durP2;ratioP2
35056;SDS011;21241;51.828;19.574;2022-12-08T00:01:28;6.80;;;6.10;;
35056;SDS011;21241;51.828;19.574;2022-12-08T00:03:57;6.40;;;4.80;;
35056;SDS011;21241;51.828;19.574;2022-12-08T00:06:33;6.10;;;5.50;;
35056;SDS011;21241;51.828;19.574;2022-12-08T00:12:13;8.60;;;6.10;;
35056;SDS011;21241;51.828;19.574;2022-12-08T00:14:45;6.90;;;6.10;;
35056;SDS011;21241;51.828;19.574;2022-12-08T00:17:14;6.20;;;5.60;;
35056;SDS011;21241;51.828;19.574;2022-12-08T00:19:43;6.20;;;5.70;;
35056;SDS011;21241;51.828;19.574;2022-12-08T00:22:11;6.20;;;5.50;;
35056;SDS011;21241;51.828;19.574;2022-12-08T00:24:39;7.20;;;5.70;;
35056;SDS011;21241;51.828;19.574;2022-12-08T00:27:08;6.60;;;5.60;;
35056;SDS011;21241;51.828;19.574;2022-12-08T00:29:37;5.70;;;5.10;;
35056;SDS011;21241;51.828;19.574;2022-12-08T00:32:05;7.20;;;5.90;;
35056;SDS011;21241;51.828;19.574;2022-12-08T00:34:33;7.10;;;6.40;;
35056;SDS011;21241;51.828;19.574;2022-12-08T00:37:01;6.70;;;6.00;;
35056;SDS011;21241;51.828;19.574;2022-12-08T00:39:29;8.10;;;6.20;;
35056;SDS011;21241;51.828;19.574;2022-12-08T00:41:56;7.70;;;6.10;;
35056;SDS011;21241;51.828;19.574;2022-12-08T00:44:43;7.50;;;6.00;;
35056;SDS011;21241;51.828;19.574;2022-12-08T00:47:12;7.50;;;6.80;;
35056;SDS011;21241;51.828;19.574;2022-12-08T00:49:41;7.60;;;6.50;;
35056;SDS011;21241;51.828;19.574;2022-12-08T00:52:09;7.70;;;6.90;;
35056;SDS011;21241;51.828;19.574;2022-12-08T00:54:39;8.50;;;7.70;;
35056;SDS011;21241;51.828;19.574;2022-12-08T00:57:07;10.00;;;8.10;;
35056;SDS011;21241;51.828;19.574;2022-12-08T00:59:34;9.50;;;8.50;;
35056;SDS011;21241;51.828;19.574;2022-12-08T01:02:02;8.80;;;7.80;;
35056;SDS011;21241;51.828;19.574;2022-12-08T01:04:30;9.20;;;8.30;;
35056;SDS011;21241;51.828;19.574;2022-12-08T01:06:58;12.50;;;9.90;;
35056;SDS011;21241;51.828;19.574;2022-12-08T01:09:25;10.70;;;9.60;;
35056;SDS011;21241;51.828;19.574;2022-12-08T01:11:53;10.80;;;9.80;;
35056;SDS011;21241;51.828;19.574;2022-12-08T01:14:21;12.10;;;10.90;;
35056;SDS011;21241;51.828;19.574;2022-12-08T01:16:49;12.60;;;11.50;;
35056;SDS011;21241;51.828;19.574;2022-12-08T01:19:17;12.60;;;11.20;;
35056;SDS011;21241;51.828;19.574;2022-12-08T01:21:45;12.50;;;11.30;;
35056;SDS011;21241;51.828;19.574;2022-12-08T01:24:14;12.80;;;11.60;;
35056;SDS011;21241;51.828;19.574;2022-12-08T01:26:44;13.60;;;12.30;;
35056;SDS011;21241;51.828;19.574;2022-12-08T01:29:12;13.80;;;12.40;;
35056;SDS011;21241;51.828;19.574;2022-12-08T01:31:40;13.50;;;12.10;;
35056;SDS011;21241;51.828;19.574;2022-12-08T01:34:09;13.30;;;11.90;;
35056;SDS011;21241;51.828;19.574;2022-12-08T01:36:37;14.20;;;12.80;;
35056;SDS011;21241;51.828;19.574;2022-12-08T01:39:07;14.70;;;13.30;;
35056;SDS011;21241;51.828;19.574;2022-12-08T01:41:36;14.80;;;13.20;;
35056;SDS011;21241;51.828;19.574;2022-12-08T01:46:38;15.40;;;14.00;;
35056;SDS011;21241;51.828;19.574;2022-12-08T01:49:09;16.50;;;15.00;;
35056;SDS011;21241;51.828;19.574;2022-12-08T01:51:41;18.20;;;16.50;;
35056;SDS011;21241;51.828;19.574;2022-12-08T01:54:12;18.20;;;16.40;;
35056;SDS011;21241;51.828;19.574;2022-12-08T01:59:19;19.30;;;17.40;;
35056;SDS011;21241;51.828;19.574;2022-12-08T02:01:50;19.70;;;17.80;;
35056;SDS011;21241;51.828;19.574;2022-12-08T02:04:18;21.70;;;19.60;;
35056;SDS011;21241;51.828;19.574;2022-12-08T02:06:46;21.70;;;19.50;;
35056;SDS011;21241;51.828;19.574;2022-12-08T02:09:15;21.20;;;19.10;;
35056;SDS011;21241;51.828;19.574;2022-12-08T02:11:43;21.20;;;19.00;;
35056;SDS011;21241;51.828;19.574;2022-12-08T02:14:11;22.00;;;19.90;;
35056;SDS011;21241;51.828;19.574;2022-12-08T02:16:42;22.50;;;20.30;;
35056;SDS011;21241;51.828;19.574;2022-12-08T02:19:29;22.10;;;19.90;;
35056;SDS011;21241;51.828;19.574;2022-12-08T02:22:39;24.10;;;21.70;;
35056;SDS011;21241;51.828;19.574;2022-12-08T02:25:34;24.50;;;21.90;;
35056;SDS011;21241;51.828;19.574;2022-12-08T02:28:17;24.60;;;22.00;;
35056;SDS011;21241;51.828;19.574;2022-12-08T02:36:49;25.40;;;22.80;;
35056;SDS011;21241;51.828;19.574;2022-12-08T02:39:38;24.30;;;21.70;;
35056;SDS011;21241;51.828;19.574;2022-12-08T02:42:12;23.50;;;21.10;;
35056;SDS011;21241;51.828;19.574;2022-12-08T02:44:56;22.70;;;20.40;;
35056;SDS011;21241;51.828;19.574;2022-12-08T02:47:28;22.70;;;20.40;;
35056;SDS011;21241;51.828;19.574;2022-12-08T02:49:57;21.40;;;19.40;;
35056;SDS011;21241;51.828;19.574;2022-12-08T02:54:56;21.50;;;19.30;;
35056;SDS011;21241;51.828;19.574;2022-12-08T02:57:29;21.00;;;18.80;;
35056;SDS011;21241;51.828;19.574;2022-12-08T03:00:08;20.80;;;18.70;;
35056;SDS011;21241;51.828;19.574;2022-12-08T03:08:41;20.70;;;18.80;;
35056;SDS011;21241;51.828;19.574;2022-12-08T03:11:18;19.50;;;17.50;;
35056;SDS011;21241;51.828;19.574;2022-12-08T03:13:50;20.50;;;18.40;;
35056;SDS011;21241;51.828;19.574;2022-12-08T03:16:21;22.10;;;17.70;;
35056;SDS011;21241;51.828;19.574;2022-12-08T03:19:35;18.90;;;17.00;;
35056;SDS011;21241;51.828;19.574;2022-12-08T03:21:48;18.70;;;16.80;;
35056;SDS011;21241;51.828;19.574;2022-12-08T03:24:17;19.50;;;17.10;;
35056;SDS011;21241;51.828;19.574;2022-12-08T03:26:48;20.10;;;18.20;;
35056;SDS011;21241;51.828;19.574;2022-12-08T03:29:18;19.50;;;17.50;;
35056;SDS011;21241;51.828;19.574;2022-12-08T03:31:51;19.70;;;17.80;;
35056;SDS011;21241;51.828;19.574;2022-12-08T03:34:21;18.80;;;16.90;;
35056;SDS011;21241;51.828;19.574;2022-12-08T03:36:50;18.40;;;16.70;;
35056;SDS011;21241;51.828;19.574;2022-12-08T03:39:18;18.30;;;15.90;;
35056;SDS011;21241;51.828;19.574;2022-12-08T03:41:46;17.40;;;15.80;;
35056;SDS011;21241;51.828;19.574;2022-12-08T03:44:14;17.80;;;15.90;;
35056;SDS011;21241;51.828;19.574;2022-12-08T03:46:41;17.10;;;15.50;;
35056;SDS011;21241;51.828;19.574;2022-12-08T03:49:09;16.70;;;15.10;;
35056;SDS011;21241;51.828;19.574;2022-12-08T03:51:37;16.60;;;15.00;;
35056;SDS011;21241;51.828;19.574;2022-12-08T03:54:04;17.70;;;15.90;;
35056;SDS011;21241;51.828;19.574;2022-12-08T03:56:33;17.30;;;15.70;;
35056;SDS011;21241;51.828;19.574;2022-12-08T03:59:03;17.50;;;15.60;;
35056;SDS011;21241;51.828;19.574;2022-12-08T04:01:32;17.70;;;15.90;;
35056;SDS011;21241;51.828;19.574;2022-12-08T04:04:00;17.70;;;15.90;;
35056;SDS011;21241;51.828;19.574;2022-12-08T04:06:27;17.80;;;15.70;;
35056;SDS011;21241;51.828;19.574;2022-12-08T04:08:55;17.60;;;15.90;;
35056;SDS011;21241;51.828;19.574;2022-12-08T04:11:23;18.20;;;16.40;;
35056;SDS011;21241;51.828;19.574;2022-12-08T04:13:50;17.60;;;15.80;;
35056;SDS011;21241;51.828;19.574;2022-12-08T04:16:19;22.20;;;16.40;;
35056;SDS011;21241;51.828;19.574;2022-12-08T04:18:49;17.40;;;14.70;;
35056;SDS011;21241;51.828;19.574;2022-12-08T04:21:17;17.70;;;16.00;;
35056;SDS011;21241;51.828;19.574;2022-12-08T04:23:45;17.30;;;15.60;;
35056;SDS011;21241;51.828;19.574;2022-12-08T04:26:13;17.10;;;15.30;;
35056;SDS011;21241;51.828;19.574;2022-12-08T04:28:41;17.70;;;15.90;;
35056;SDS011;21241;51.828;19.574;2022-12-08T04:31:09;17.70;;;15.80;;
35056;SDS011;21241;51.828;19.574;2022-12-08T04:33:37;17.80;;;16.10;;
35056;SDS011;21241;51.828;19.574;2022-12-08T04:36:05;16.80;;;15.10;;
35056;SDS011;21241;51.828;19.574;2022-12-08T04:38:33;18.00;;;16.20;;
35056;SDS011;21241;51.828;19.574;2022-12-08T04:41:01;19.80;;;17.70;;
35056;SDS011;21241;51.828;19.574;2022-12-08T04:43:29;19.80;;;17.80;;
35056;SDS011;21241;51.828;19.574;2022-12-08T04:45:56;20.40;;;17.00;;
35056;SDS011;21241;51.828;19.574;2022-12-08T04:48:24;20.10;;;18.10;;
35056;SDS011;21241;51.828;19.574;2022-12-08T04:50:52;18.00;;;16.20;;
35056;SDS011;21241;51.828;19.574;2022-12-08T04:53:20;18.10;;;16.30;;
35056;SDS011;21241;51.828;19.574;2022-12-08T04:55:47;17.40;;;15.80;;
35056;SDS011;21241;51.828;19.574;2022-12-08T04:58:17;18.40;;;15.70;;
35056;SDS011;21241;51.828;19.574;2022-12-08T05:00:46;17.50;;;15.70;;
35056;SDS011;21241;51.828;19.574;2022-12-08T05:03:14;17.00;;;15.30;;
35056;SDS011;21241;51.828;19.574;2022-12-08T05:05:43;18.10;;;16.20;;
35056;SDS011;21241;51.828;19.574;2022-12-08T05:08:11;17.60;;;15.80;;
35056;SDS011;21241;51.828;19.574;2022-12-08T05:10:38;17.40;;;15.50;;
35056;SDS011;21241;51.828;19.574;2022-12-08T05:13:06;17.00;;;15.20;;
35056;SDS011;21241;51.828;19.574;2022-12-08T05:15:34;17.70;;;16.00;;
35056;SDS011;21241;51.828;19.574;2022-12-08T05:18:03;18.70;;;16.00;;
35056;SDS011;21241;51.828;19.574;2022-12-08T05:20:32;17.50;;;15.80;;
35056;SDS011;21241;51.828;19.574;2022-12-08T05:23:00;17.00;;;15.40;;
35056;SDS011;21241;51.828;19.574;2022-12-08T05:25:28;17.20;;;15.50;;
35056;SDS011;21241;51.828;19.574;2022-12-08T05:27:55;18.30;;;16.30;;
35056;SDS011;21241;51.828;19.574;2022-12-08T05:30:43;19.10;;;17.00;;
35056;SDS011;21241;51.828;19.574;2022-12-08T05:33:11;18.80;;;16.90;;
35056;SDS011;21241;51.828;19.574;2022-12-08T05:35:38;18.70;;;16.70;;
35056;SDS011;21241;51.828;19.574;2022-12-08T05:38:06;19.70;;;17.70;;
35056;SDS011;21241;51.828;19.574;2022-12-08T05:40:35;18.80;;;16.90;;
35056;SDS011;21241;51.828;19.574;2022-12-08T05:43:04;19.50;;;17.50;;
35056;SDS011;21241;51.828;19.574;2022-12-08T05:45:32;18.30;;;16.60;;
35056;SDS011;21241;51.828;19.574;2022-12-08T05:48:00;19.50;;;17.60;;
35056;SDS011;21241;51.828;19.574;2022-12-08T05:50:28;23.10;;;17.80;;
35056;SDS011;21241;51.828;19.574;2022-12-08T05:52:56;20.80;;;18.70;;
35056;SDS011;21241;51.828;19.574;2022-12-08T05:55:24;20.60;;;18.40;;
35056;SDS011;21241;51.828;19.574;2022-12-08T05:57:51;18.90;;;17.00;;
35056;SDS011;21241;51.828;19.574;2022-12-08T06:00:19;20.40;;;18.30;;
35056;SDS011;21241;51.828;19.574;2022-12-08T06:02:48;22.00;;;18.90;;
35056;SDS011;21241;51.828;19.574;2022-12-08T06:05:16;21.30;;;19.00;;
35056;SDS011;21241;51.828;19.574;2022-12-08T06:07:43;22.00;;;19.80;;
35056;SDS011;21241;51.828;19.574;2022-12-08T06:10:11;21.10;;;18.90;;
35056;SDS011;21241;51.828;19.574;2022-12-08T06:12:39;23.10;;;19.30;;
35056;SDS011;21241;51.828;19.574;2022-12-08T06:15:07;22.10;;;19.80;;
35056;SDS011;21241;51.828;19.574;2022-12-08T06:17:35;21.80;;;19.60;;
35056;SDS011;21241;51.828;19.574;2022-12-08T06:20:03;22.50;;;19.90;;
35056;SDS011;21241;51.828;19.574;2022-12-08T06:22:33;22.40;;;20.10;;
35056;SDS011;21241;51.828;19.574;2022-12-08T06:25:01;22.60;;;20.40;;
35056;SDS011;21241;51.828;19.574;2022-12-08T06:27:33;23.40;;;21.00;;
35056;SDS011;21241;51.828;19.574;2022-12-08T06:30:01;24.30;;;21.90;;
35056;SDS011;21241;51.828;19.574;2022-12-08T06:32:30;24.30;;;22.00;;
35056;SDS011;21241;51.828;19.574;2022-12-08T06:34:58;24.70;;;22.20;;
35056;SDS011;21241;51.828;19.574;2022-12-08T06:37:27;26.40;;;23.80;;
35056;SDS011;21241;51.828;19.574;2022-12-08T06:39:55;26.60;;;23.90;;
35056;SDS011;21241;51.828;19.574;2022-12-08T06:42:23;29.40;;;26.30;;
35056;SDS011;21241;51.828;19.574;2022-12-08T06:45:10;29.30;;;26.10;;
35056;SDS011;21241;51.828;19.574;2022-12-08T06:47:39;30.40;;;27.50;;
35056;SDS011;21241;51.828;19.574;2022-12-08T06:50:07;31.20;;;28.30;;
35056;SDS011;21241;51.828;19.574;2022-12-08T06:52:36;32.50;;;29.10;;
35056;SDS011;21241;51.828;19.574;2022-12-08T06:55:16;32.40;;;29.30;;
35056;SDS011;21241;51.828;19.574;2022-12-08T06:58:03;31.60;;;28.40;;
35056;SDS011;21241;51.828;19.574;2022-12-08T07:00:31;31.80;;;28.90;;
35056;SDS011;21241;51.828;19.574;2022-12-08T07:02:58;33.60;;;30.10;;
35056;SDS011;21241;51.828;19.574;2022-12-08T07:05:26;32.70;;;29.60;;
35056;SDS011;21241;51.828;19.574;2022-12-08T07:07:54;34.30;;;30.90;;
35056;SDS011;21241;51.828;19.574;2022-12-08T07:10:22;36.80;;;33.20;;
35056;SDS011;21241;51.828;19.574;2022-12-08T07:12:49;35.20;;;31.80;;
35056;SDS011;21241;51.828;19.574;2022-12-08T07:15:17;37.80;;;33.20;;
35056;SDS011;21241;51.828;19.574;2022-12-08T07:17:46;35.50;;;32.00;;
35056;SDS011;21241;51.828;19.574;2022-12-08T07:20:14;34.80;;;31.40;;
35056;SDS011;21241;51.828;19.574;2022-12-08T07:22:52;36.10;;;32.40;;
35056;SDS011;21241;51.828;19.574;2022-12-08T07:25:20;36.60;;;33.00;;
35056;SDS011;21241;51.828;19.574;2022-12-08T07:27:48;38.00;;;34.10;;
35056;SDS011;21241;51.828;19.574;2022-12-08T07:30:18;37.20;;;33.70;;
35056;SDS011;21241;51.828;19.574;2022-12-08T07:32:46;36.70;;;33.10;;
35056;SDS011;21241;51.828;19.574;2022-12-08T07:35:14;50.60;;;46.10;;
35056;SDS011;21241;51.828;19.574;2022-12-08T07:37:41;45.90;;;41.50;;
35056;SDS011;21241;51.828;19.574;2022-12-08T07:40:09;40.00;;;36.10;;
35056;SDS011;21241;51.828;19.574;2022-12-08T07:42:37;36.80;;;33.20;;
35056;SDS011;21241;51.828;19.574;2022-12-08T07:45:05;36.20;;;32.50;;
35056;SDS011;21241;51.828;19.574;2022-12-08T07:47:34;35.30;;;31.90;;
35056;SDS011;21241;51.828;19.574;2022-12-08T07:50:01;35.50;;;31.80;;
35056;SDS011;21241;51.828;19.574;2022-12-08T07:52:32;36.30;;;32.60;;
35056;SDS011;21241;51.828;19.574;2022-12-08T07:55:00;33.70;;;30.10;;
35056;SDS011;21241;51.828;19.574;2022-12-08T07:57:28;34.00;;;30.50;;
35056;SDS011;21241;51.828;19.574;2022-12-08T07:59:56;33.00;;;29.80;;
35056;SDS011;21241;51.828;19.574;2022-12-08T08:02:23;32.30;;;29.10;;
35056;SDS011;21241;51.828;19.574;2022-12-08T08:04:53;32.70;;;29.20;;
35056;SDS011;21241;51.828;19.574;2022-12-08T08:07:21;33.70;;;30.10;;
35056;SDS011;21241;51.828;19.574;2022-12-08T08:09:48;32.70;;;29.60;;
35056;SDS011;21241;51.828;19.574;2022-12-08T08:12:16;32.30;;;29.10;;
35056;SDS011;21241;51.828;19.574;2022-12-08T08:15:00;34.60;;;31.20;;
35056;SDS011;21241;51.828;19.574;2022-12-08T08:17:28;35.60;;;32.10;;
35056;SDS011;21241;51.828;19.574;2022-12-08T08:19:56;37.90;;;34.20;;
35056;SDS011;21241;51.828;19.574;2022-12-08T08:22:24;37.00;;;33.40;;
35056;SDS011;21241;51.828;19.574;2022-12-08T08:24:52;38.90;;;35.50;;
35056;SDS011;21241;51.828;19.574;2022-12-08T08:27:20;43.30;;;39.30;;
35056;SDS011;21241;51.828;19.574;2022-12-08T08:29:49;39.00;;;35.10;;
35056;SDS011;21241;51.828;19.574;2022-12-08T08:32:17;39.70;;;35.70;;
35056;SDS011;21241;51.828;19.574;2022-12-08T08:34:44;38.50;;;35.00;;
35056;SDS011;21241;51.828;19.574;2022-12-08T08:37:12;38.20;;;34.60;;
35056;SDS011;21241;51.828;19.574;2022-12-08T08:39:40;37.60;;;34.00;;
35056;SDS011;21241;51.828;19.574;2022-12-08T08:42:09;36.30;;;33.10;;
35056;SDS011;21241;51.828;19.574;2022-12-08T08:44:37;36.00;;;32.70;;
35056;SDS011;21241;51.828;19.574;2022-12-08T08:47:05;37.30;;;33.90;;
35056;SDS011;21241;51.828;19.574;2022-12-08T08:49:33;37.60;;;34.30;;
35056;SDS011;21241;51.828;19.574;2022-12-08T08:52:01;39.80;;;36.10;;
35056;SDS011;21241;51.828;19.574;2022-12-08T08:54:30;38.30;;;34.80;;
35056;SDS011;21241;51.828;19.574;2022-12-08T08:56:59;40.60;;;36.80;;
35056;SDS011;21241;51.828;19.574;2022-12-08T08:59:27;38.90;;;35.40;;
35056;SDS011;21241;51.828;19.574;2022-12-08T09:01:54;39.00;;;35.40;;
35056;SDS011;21241;51.828;19.574;2022-12-08T09:04:22;41.20;;;37.40;;
35056;SDS011;21241;51.828;19.574;2022-12-08T09:06:52;37.70;;;34.40;;
35056;SDS011;21241;51.828;19.574;2022-12-08T09:09:19;37.60;;;34.20;;
35056;SDS011;21241;51.828;19.574;2022-12-08T09:11:47;36.60;;;33.30;;
35056;SDS011;21241;51.828;19.574;2022-12-08T09:14:15;37.70;;;34.40;;
35056;SDS011;21241;51.828;19.574;2022-12-08T09:16:42;35.70;;;32.60;;
35056;SDS011;21241;51.828;19.574;2022-12-08T09:19:10;35.90;;;32.70;;
35056;SDS011;21241;51.828;19.574;2022-12-08T09:21:38;52.70;;;48.50;;
35056;SDS011;21241;51.828;19.574;2022-12-08T09:24:06;36.60;;;33.00;;
35056;SDS011;21241;51.828;19.574;2022-12-08T09:26:34;36.10;;;32.80;;
35056;SDS011;21241;51.828;19.574;2022-12-08T09:29:02;41.00;;;37.40;;
35056;SDS011;21241;51.828;19.574;2022-12-08T09:31:30;39.70;;;36.20;;
35056;SDS011;21241;51.828;19.574;2022-12-08T09:33:57;38.60;;;35.30;;
35056;SDS011;21241;51.828;19.574;2022-12-08T09:36:25;39.20;;;35.80;;
35056;SDS011;21241;51.828;19.574;2022-12-08T09:38:53;39.50;;;35.90;;
35056;SDS011;21241;51.828;19.574;2022-12-08T09:41:28;40.70;;;37.10;;
35056;SDS011;21241;51.828;19.574;2022-12-08T09:46:46;39.50;;;35.90;;
35056;SDS011;21241;51.828;19.574;2022-12-08T09:49:16;39.70;;;36.10;;
35056;SDS011;21241;51.828;19.574;2022-12-08T09:51:45;36.80;;;33.60;;
35056;SDS011;21241;51.828;19.574;2022-12-08T09:54:35;37.80;;;34.50;;
35056;SDS011;21241;51.828;19.574;2022-12-08T09:57:05;37.00;;;33.80;;
35056;SDS011;21241;51.828;19.574;2022-12-08T09:59:34;36.90;;;33.50;;
35056;SDS011;21241;51.828;19.574;2022-12-08T10:02:08;36.70;;;33.50;;
35056;SDS011;21241;51.828;19.574;2022-12-08T10:04:40;36.80;;;33.50;;
35056;SDS011;21241;51.828;19.574;2022-12-08T10:07:19;40.30;;;37.00;;
35056;SDS011;21241;51.828;19.574;2022-12-08T10:12:54;35.60;;;32.50;;
35056;SDS011;21241;51.828;19.574;2022-12-08T10:18:24;35.10;;;32.00;;
35056;SDS011;21241;51.828;19.574;2022-12-08T10:20:57;36.10;;;33.10;;
35056;SDS011;21241;51.828;19.574;2022-12-08T10:23:32;37.10;;;33.80;;
35056;SDS011;21241;51.828;19.574;2022-12-08T10:26:06;37.40;;;34.10;;
35056;SDS011;21241;51.828;19.574;2022-12-08T10:28:38;39.50;;;36.00;;
35056;SDS011;21241;51.828;19.574;2022-12-08T10:31:18;39.10;;;35.60;;
35056;SDS011;21241;51.828;19.574;2022-12-08T10:33:52;40.00;;;36.50;;
35056;SDS011;21241;51.828;19.574;2022-12-08T10:36:59;40.60;;;36.90;;
35056;SDS011;21241;51.828;19.574;2022-12-08T10:44:52;44.30;;;40.50;;
35056;SDS011;21241;51.828;19.574;2022-12-08T10:47:24;40.20;;;36.60;;
35056;SDS011;21241;51.828;19.574;2022-12-08T10:52:52;42.00;;;38.40;;
35056;SDS011;21241;51.828;19.574;2022-12-08T10:55:25;44.40;;;40.60;;
35056;SDS011;21241;51.828;19.574;2022-12-08T10:57:54;40.50;;;36.90;;
35056;SDS011;21241;51.828;19.574;2022-12-08T11:00:25;39.50;;;36.00;;
35056;SDS011;21241;51.828;19.574;2022-12-08T11:02:56;40.40;;;36.80;;
35056;SDS011;21241;51.828;19.574;2022-12-08T11:05:31;39.80;;;36.30;;
35056;SDS011;21241;51.828;19.574;2022-12-08T11:08:00;39.90;;;36.50;;
35056;SDS011;21241;51.828;19.574;2022-12-08T11:10:33;38.10;;;34.80;;
35056;SDS011;21241;51.828;19.574;2022-12-08T11:13:04;38.50;;;35.20;;
35056;SDS011;21241;51.828;19.574;2022-12-08T11:15:34;36.90;;;33.70;;
35056;SDS011;21241;51.828;19.574;2022-12-08T11:18:11;39.30;;;36.10;;
35056;SDS011;21241;51.828;19.574;2022-12-08T11:20:55;45.80;;;42.10;;
35056;SDS011;21241;51.828;19.574;2022-12-08T11:23:26;38.30;;;35.00;;
35056;SDS011;21241;51.828;19.574;2022-12-08T11:25:56;42.50;;;38.80;;
35056;SDS011;21241;51.828;19.574;2022-12-08T11:28:27;42.90;;;39.20;;
35056;SDS011;21241;51.828;19.574;2022-12-08T11:31:03;41.20;;;37.70;;
35056;SDS011;21241;51.828;19.574;2022-12-08T11:33:36;36.30;;;33.10;;
35056;SDS011;21241;51.828;19.574;2022-12-08T11:36:04;33.90;;;31.00;;
35056;SDS011;21241;51.828;19.574;2022-12-08T11:38:38;32.90;;;30.10;;
35056;SDS011;21241;51.828;19.574;2022-12-08T11:41:08;31.20;;;28.60;;
35056;SDS011;21241;51.828;19.574;2022-12-08T11:43:45;33.20;;;30.30;;
35056;SDS011;21241;51.828;19.574;2022-12-08T11:46:20;30.40;;;27.90;;
35056;SDS011;21241;51.828;19.574;2022-12-08T11:48:56;30.80;;;28.20;;
35056;SDS011;21241;51.828;19.574;2022-12-08T11:54:33;32.30;;;29.50;;
35056;SDS011;21241;51.828;19.574;2022-12-08T11:57:03;36.10;;;33.00;;
35056;SDS011;21241;51.828;19.574;2022-12-08T11:59:34;36.20;;;32.80;;
35056;SDS011;21241;51.828;19.574;2022-12-08T12:02:27;39.10;;;35.70;;
35056;SDS011;21241;51.828;19.574;2022-12-08T12:07:46;35.40;;;32.40;;
35056;SDS011;21241;51.828;19.574;2022-12-08T12:16:04;34.80;;;32.00;;
35056;SDS011;21241;51.828;19.574;2022-12-08T12:24:23;30.70;;;28.10;;
35056;SDS011;21241;51.828;19.574;2022-12-08T12:27:01;41.00;;;37.70;;
35056;SDS011;21241;51.828;19.574;2022-12-08T12:29:32;27.90;;;25.30;;
35056;SDS011;21241;51.828;19.574;2022-12-08T12:32:02;36.00;;;33.10;;
35056;SDS011;21241;51.828;19.574;2022-12-08T12:34:54;28.20;;;25.80;;
35056;SDS011;21241;51.828;19.574;2022-12-08T12:37:37;32.00;;;29.20;;
35056;SDS011;21241;51.828;19.574;2022-12-08T12:40:14;25.60;;;23.60;;
35056;SDS011;21241;51.828;19.574;2022-12-08T12:42:46;28.60;;;26.10;;
35056;SDS011;21241;51.828;19.574;2022-12-08T13:06:14;18.50;;;16.90;;
35056;SDS011;21241;51.828;19.574;2022-12-08T13:08:50;20.00;;;18.20;;
35056;SDS011;21241;51.828;19.574;2022-12-08T13:11:19;20.20;;;18.50;;
35056;SDS011;21241;51.828;19.574;2022-12-08T13:13:57;22.90;;;20.90;;
35056;SDS011;21241;51.828;19.574;2022-12-08T13:16:31;21.40;;;19.60;;
35056;SDS011;21241;51.828;19.574;2022-12-08T13:19:02;25.70;;;23.40;;
35056;SDS011;21241;51.828;19.574;2022-12-08T13:21:40;23.00;;;21.00;;
35056;SDS011;21241;51.828;19.574;2022-12-08T13:26:43;19.60;;;17.80;;
35056;SDS011;21241;51.828;19.574;2022-12-08T13:29:14;20.60;;;18.80;;
35056;SDS011;21241;51.828;19.574;2022-12-08T13:31:51;20.70;;;18.90;;
35056;SDS011;21241;51.828;19.574;2022-12-08T13:40:00;21.60;;;19.80;;
35056;SDS011;21241;51.828;19.574;2022-12-08T13:42:35;22.40;;;20.30;;
35056;SDS011;21241;51.828;19.574;2022-12-08T13:51:06;24.20;;;22.10;;
35056;SDS011;21241;51.828;19.574;2022-12-08T13:54:03;24.10;;;22.10;;
35056;SDS011;21241;51.828;19.574;2022-12-08T13:56:53;23.50;;;21.40;;
35056;SDS011;21241;51.828;19.574;2022-12-08T13:59:42;26.30;;;23.90;;
35056;SDS011;21241;51.828;19.574;2022-12-08T14:02:26;23.80;;;21.70;;
35056;SDS011;21241;51.828;19.574;2022-12-08T14:04:58;23.60;;;21.60;;
35056;SDS011;21241;51.828;19.574;2022-12-08T14:07:47;26.80;;;24.30;;
35056;SDS011;21241;51.828;19.574;2022-12-08T14:12:55;25.60;;;23.40;;
35056;SDS011;21241;51.828;19.574;2022-12-08T14:15:27;26.20;;;23.90;;
35056;SDS011;21241;51.828;19.574;2022-12-08T14:18:03;26.80;;;24.30;;
35056;SDS011;21241;51.828;19.574;2022-12-08T14:20:32;26.80;;;24.50;;
35056;SDS011;21241;51.828;19.574;2022-12-08T14:23:18;27.40;;;25.00;;
35056;SDS011;21241;51.828;19.574;2022-12-08T14:25:46;27.90;;;25.40;;
35056;SDS011;21241;51.828;19.574;2022-12-08T14:28:14;27.40;;;25.00;;
35056;SDS011;21241;51.828;19.574;2022-12-08T14:30:42;28.10;;;25.50;;
35056;SDS011;21241;51.828;19.574;2022-12-08T14:33:12;25.90;;;23.50;;
35056;SDS011;21241;51.828;19.574;2022-12-08T14:35:41;27.60;;;25.20;;
35056;SDS011;21241;51.828;19.574;2022-12-08T14:38:13;28.50;;;25.90;;
35056;SDS011;21241;51.828;19.574;2022-12-08T14:40:46;28.40;;;25.80;;
35056;SDS011;21241;51.828;19.574;2022-12-08T14:43:28;27.80;;;25.30;;
35056;SDS011;21241;51.828;19.574;2022-12-08T14:46:02;28.90;;;26.30;;
35056;SDS011;21241;51.828;19.574;2022-12-08T14:56:07;29.50;;;26.80;;
35056;SDS011;21241;51.828;19.574;2022-12-08T14:58:37;28.20;;;25.70;;
35056;SDS011;21241;51.828;19.574;2022-12-08T15:01:05;28.80;;;26.30;;
35056;SDS011;21241;51.828;19.574;2022-12-08T15:03:36;27.70;;;25.10;;
35056;SDS011;21241;51.828;19.574;2022-12-08T15:06:05;29.60;;;26.90;;
35056;SDS011;21241;51.828;19.574;2022-12-08T15:08:39;28.90;;;26.10;;
35056;SDS011;21241;51.828;19.574;2022-12-08T15:13:50;30.40;;;27.70;;
35056;SDS011;21241;51.828;19.574;2022-12-08T15:16:37;29.00;;;26.40;;
35056;SDS011;21241;51.828;19.574;2022-12-08T15:19:17;30.60;;;27.80;;
35056;SDS011;21241;51.828;19.574;2022-12-08T15:21:58;31.60;;;28.60;;
35056;SDS011;21241;51.828;19.574;2022-12-08T15:24:40;31.50;;;28.60;;
35056;SDS011;21241;51.828;19.574;2022-12-08T15:27:08;32.20;;;29.40;;
35056;SDS011;21241;51.828;19.574;2022-12-08T15:29:37;32.20;;;29.00;;
35056;SDS011;21241;51.828;19.574;2022-12-08T15:32:04;31.90;;;29.00;;
35056;SDS011;21241;51.828;19.574;2022-12-08T15:34:36;30.50;;;27.70;;
35056;SDS011;21241;51.828;19.574;2022-12-08T15:37:04;32.00;;;29.10;;
35056;SDS011;21241;51.828;19.574;2022-12-08T15:39:45;50.00;;;45.30;;
35056;SDS011;21241;51.828;19.574;2022-12-08T15:42:12;43.50;;;39.80;;
35056;SDS011;21241;51.828;19.574;2022-12-08T15:44:40;31.30;;;28.50;;
35056;SDS011;21241;51.828;19.574;2022-12-08T15:47:18;32.10;;;29.30;;
35056;SDS011;21241;51.828;19.574;2022-12-08T15:49:48;33.40;;;30.40;;
35056;SDS011;21241;51.828;19.574;2022-12-08T15:52:21;33.40;;;30.40;;
35056;SDS011;21241;51.828;19.574;2022-12-08T15:54:50;33.80;;;30.70;;
35056;SDS011;21241;51.828;19.574;2022-12-08T15:57:21;35.80;;;32.60;;
35056;SDS011;21241;51.828;19.574;2022-12-08T16:00:29;34.20;;;31.00;;
35056;SDS011;21241;51.828;19.574;2022-12-08T16:03:22;34.40;;;31.20;;
35056;SDS011;21241;51.828;19.574;2022-12-08T16:06:16;34.10;;;31.00;;
35056;SDS011;21241;51.828;19.574;2022-12-08T16:09:05;34.70;;;31.50;;
35056;SDS011;21241;51.828;19.574;2022-12-08T16:11:40;35.90;;;32.60;;
35056;SDS011;21241;51.828;19.574;2022-12-08T16:14:36;39.20;;;35.40;;
35056;SDS011;21241;51.828;19.574;2022-12-08T16:17:25;34.80;;;31.70;;
35056;SDS011;21241;51.828;19.574;2022-12-08T16:19:53;33.40;;;30.50;;
35056;SDS011;21241;51.828;19.574;2022-12-08T16:22:23;32.20;;;29.40;;